Time;durP1;ratioP1;P1;durP2;ratioP2;P2;SDS_P1;SDS_P2;PMS_P1;PMS_P2;Temp;Humidity;BMP_temperature;BMP_pressure;BME280_temperature;BME280_humidity;BME280_pressure;Samples;Min_cycle;Max_cycle;Signal;HPM_P1;HPM_P2
2022/03/21 00:01:22;;;;;;;26.73;22.05;;;17.40;45.80;;;;;;4967739;28;98883;-69
2022/03/21 00:03:47;;;;;;;27.48;21.77;;;17.40;45.80;;;;;;4967872;28;99244;-69
2022/03/21 00:06:13;;;;;;;26.65;21.95;;;17.40;45.70;;;;;;4967566;28;100369;-69
2022/03/21 00:08:39;;;;;;;25.27;20.55;;;17.40;45.70;;;;;;4966828;28;99321;-69
2022/03/21 00:11:05;;;;;;;24.88;21.38;;;17.40;45.80;;;;;;4967181;28;98940;-69
2022/03/21 00:13:31;;;;;;;25.85;21.30;;;17.40;45.70;;;;;;4966925;28;100745;-69
2022/03/21 00:15:57;;;;;;;26.10;21.38;;;17.30;45.70;;;;;;4965585;28;99973;-69
2022/03/21 00:18:24;;;;;;;26.60;21.30;;;17.30;45.70;;;;;;4966764;28;98564;-69
2022/03/21 00:20:54;;;;;;;26.35;20.92;;;17.30;45.70;;;;;;4966493;28;99101;-69
2022/03/21 00:23:20;;;;;;;25.10;21.40;;;17.30;45.60;;;;;;4965803;28;99221;-69
2022/03/21 00:25:46;;;;;;;24.55;20.67;;;17.30;45.60;;;;;;4967025;28;99457;-69
2022/03/21 00:28:11;;;;;;;26.15;20.92;;;17.30;45.60;;;;;;4966844;28;98666;-69
2022/03/21 00:30:39;;;;;;;24.75;21.27;;;17.30;45.60;;;;;;4966458;28;98811;-69
2022/03/21 00:33:06;;;;;;;25.77;21.05;;;17.30;45.60;;;;;;4965176;28;100825;-69
2022/03/21 00:35:32;;;;;;;24.25;20.55;;;17.30;45.60;;;;;;4965788;28;102104;-69
2022/03/21 00:37:58;;;;;;;24.27;20.60;;;17.30;45.50;;;;;;4967049;28;98479;-69
2022/03/21 00:40:24;;;;;;;24.52;20.70;;;17.30;45.60;;;;;;4966692;28;98573;-69
2022/03/21 00:42:51;;;;;;;25.33;21.33;;;17.30;45.50;;;;;;4965798;28;99370;-69
2022/03/21 00:45:20;;;;;;;26.08;21.40;;;17.20;45.50;;;;;;4966159;28;99434;-69
2022/03/21 00:47:48;;;;;;;25.92;20.77;;;17.20;45.50;;;;;;4966526;28;99020;-69
2022/03/21 00:50:16;;;;;;;24.00;20.58;;;17.20;45.50;;;;;;4967688;28;98236;-69
2022/03/21 00:52:47;;;;;;;25.50;20.23;;;17.20;45.40;;;;;;4966595;28;100411;-69
2022/03/21 00:55:14;;;;;;;24.55;21.25;;;17.20;45.40;;;;;;4966266;28;98979;-69
2022/03/21 00:57:42;;;;;;;24.85;20.85;;;17.20;45.40;;;;;;4966638;28;99216;-69
2022/03/21 01:00:15;;;;;;;22.90;20.40;;;17.20;45.40;;;;;;4967436;28;98641;-69
2022/03/21 01:02:42;;;;;;;23.85;20.63;;;17.20;45.40;;;;;;4966079;28;100029;-68
2022/03/21 01:05:10;;;;;;;24.13;19.95;;;17.10;45.30;;;;;;4966151;28;100336;-69
2022/03/21 01:07:36;;;;;;;23.45;20.13;;;17.10;45.30;;;;;;4965930;28;99049;-69
2022/03/21 01:10:04;;;;;;;22.67;20.25;;;17.10;45.20;;;;;;4966695;28;99492;-68
2022/03/21 01:12:30;;;;;;;25.70;19.77;;;17.10;45.30;;;;;;4966018;28;100623;-69
2022/03/21 01:14:57;;;;;;;23.88;20.60;;;17.10;45.20;;;;;;4966603;28;100286;-69
2022/03/21 01:17:22;;;;;;;23.33;20.85;;;17.10;45.20;;;;;;4967286;28;98618;-69
2022/03/21 01:19:48;;;;;;;24.00;20.60;;;17.10;45.20;;;;;;4970585;28;98704;-69
2022/03/21 01:22:13;;;;;;;22.83;20.42;;;17.10;45.20;;;;;;4969319;28;101618;-69
2022/03/21 01:24:39;;;;;;;23.30;20.25;;;17.10;45.20;;;;;;4969445;28;100599;-69
2022/03/21 01:27:06;;;;;;;25.08;20.25;;;17.10;45.20;;;;;;4970364;28;99190;-69
2022/03/21 01:29:32;;;;;;;21.92;19.23;;;17.10;45.10;;;;;;4970035;28;98667;-68
2022/03/21 01:31:58;;;;;;;23.85;21.02;;;17.00;45.00;;;;;;4968969;28;99692;-69
2022/03/21 01:34:24;;;;;;;21.77;19.45;;;17.10;45.10;;;;;;4969044;28;98794;-69
2022/03/21 01:36:49;;;;;;;22.33;20.02;;;17.00;45.00;;;;;;4970133;28;99015;-69
2022/03/21 01:39:15;;;;;;;23.85;20.17;;;17.00;44.90;;;;;;4969349;28;97878;-69
2022/03/21 01:41:41;;;;;;;25.17;20.67;;;17.00;45.00;;;;;;4969158;28;99008;-69
2022/03/21 01:44:09;;;;;;;22.90;20.38;;;17.00;44.90;;;;;;4970024;28;98897;-69
2022/03/21 01:46:36;;;;;;;22.20;19.85;;;17.00;44.90;;;;;;4968652;28;99866;-69
2022/03/21 01:49:04;;;;;;;22.48;19.98;;;17.00;46.00;;;;;;4969981;28;98619;-69
2022/03/21 01:51:30;;;;;;;23.05;19.98;;;17.00;44.90;;;;;;4969015;28;100287;-68
2022/03/21 01:56:45;;;;;;;22.42;20.13;;;17.00;44.90;;;;;;4970442;28;98980;-69
2022/03/21 01:59:11;;;;;;;22.10;19.77;;;16.90;44.80;;;;;;4969240;28;99118;-69
2022/03/21 02:01:37;;;;;;;22.33;19.90;;;16.90;44.80;;;;;;4968485;28;99384;-69
2022/03/21 02:04:04;;;;;;;21.55;19.27;;;16.90;44.80;;;;;;4969671;28;100270;-69
2022/03/21 02:06:30;;;;;;;21.58;19.38;;;16.90;44.80;;;;;;4968720;28;98630;-71
2022/03/21 02:09:01;;;;;;;21.92;19.45;;;16.90;44.70;;;;;;4970133;28;98968;-68
2022/03/21 02:11:27;;;;;;;22.13;19.83;;;16.90;44.70;;;;;;4968662;28;101013;-69
2022/03/21 02:13:54;;;;;;;23.92;19.48;;;16.90;44.80;;;;;;4968741;28;100905;-69
2022/03/21 02:16:21;;;;;;;22.08;19.67;;;16.90;44.80;;;;;;4968933;28;99040;-68
2022/03/21 02:18:48;;;;;;;22.25;19.95;;;16.90;44.70;;;;;;4969449;28;98944;-69
2022/03/21 02:21:42;;;;;;;21.42;19.13;;;16.90;44.70;;;;;;4968434;28;100404;-70
2022/03/21 02:24:14;;;;;;;22.75;19.88;;;16.90;44.70;;;;;;4927444;28;100077;-69
2022/03/21 02:26:40;;;;;;;22.88;19.80;;;16.80;44.70;;;;;;4968290;28;98753;-69
2022/03/21 02:29:08;;;;;;;22.33;19.92;;;16.80;44.60;;;;;;4968620;28;97975;-69
2022/03/21 02:31:35;;;;;;;21.85;19.55;;;16.80;44.60;;;;;;4968983;28;99316;-69
2022/03/21 02:34:02;;;;;;;22.20;19.80;;;16.80;44.60;;;;;;4967407;28;100015;-69
2022/03/21 02:36:28;;;;;;;22.48;19.92;;;16.80;44.60;;;;;;4968363;28;99797;-69
2022/03/21 02:38:56;;;;;;;23.23;19.88;;;16.80;44.70;;;;;;4969277;28;98976;-68
2022/03/21 02:41:22;;;;;;;23.02;19.25;;;16.80;44.60;;;;;;4967740;28;102202;-70
2022/03/21 02:43:58;;;;;;;21.33;18.98;;;16.80;44.60;;;;;;4968992;28;99143;-70
2022/03/21 02:46:24;;;;;;;21.83;19.52;;;16.70;44.50;;;;;;4969418;28;99100;-69
2022/03/21 02:48:52;;;;;;;21.58;19.27;;;16.70;44.50;;;;;;4968230;28;98721;-70
2022/03/21 02:51:20;;;;;;;23.27;19.85;;;16.70;44.50;;;;;;4968379;28;99877;-69
2022/03/21 02:53:50;;;;;;;21.65;19.17;;;16.70;44.50;;;;;;4970479;28;98804;-68
2022/03/21 02:56:16;;;;;;;23.33;19.15;;;16.70;44.50;;;;;;4971464;28;98621;-69
2022/03/21 02:58:42;;;;;;;21.73;19.42;;;16.70;44.50;;;;;;4972859;28;98871;-69
2022/03/21 03:01:12;;;;;;;22.48;19.83;;;16.70;44.50;;;;;;4970404;28;99776;-69
2022/03/21 03:03:38;;;;;;;22.70;20.23;;;16.70;44.50;;;;;;4968045;28;99565;-69
2022/03/21 03:06:04;;;;;;;21.90;19.60;;;16.70;44.50;;;;;;4968249;28;99151;-69
2022/03/21 03:08:31;;;;;;;22.55;20.15;;;16.70;44.50;;;;;;4968275;28;99037;-69
2022/03/21 03:10:56;;;;;;;21.52;19.30;;;16.70;44.50;;;;;;4967182;28;100419;-69
2022/03/21 03:13:22;;;;;;;23.02;20.63;;;16.70;44.40;;;;;;4968127;28;98861;-69
2022/03/21 03:15:48;;;;;;;24.35;20.55;;;16.70;44.40;;;;;;4967522;28;98821;-69
2022/03/21 03:18:16;;;;;;;21.83;19.52;;;16.60;44.40;;;;;;4968143;28;97968;-69
2022/03/21 03:20:51;;;;;;;22.08;19.77;;;16.60;44.40;;;;;;4966519;28;100650;-69
2022/03/21 03:23:22;;;;;;;22.95;20.35;;;16.60;44.40;;;;;;4968315;28;98926;-69
2022/03/21 03:26:02;;;;;;;22.17;19.80;;;16.60;44.40;;;;;;4967071;28;99564;-69
2022/03/21 03:28:29;;;;;;;23.45;20.52;;;16.60;44.40;;;;;;4967683;28;99125;-69
2022/03/21 03:30:55;;;;;;;22.77;20.05;;;16.60;44.40;;;;;;4967038;28;100464;-69
2022/03/21 03:33:22;;;;;;;24.40;21.00;;;16.60;44.40;;;;;;4967249;28;98827;-69
2022/03/21 03:35:48;;;;;;;22.25;19.83;;;16.60;45.40;;;;;;4966962;28;98942;-69
2022/03/21 03:38:15;;;;;;;24.13;21.42;;;16.60;45.40;;;;;;4968175;28;98808;-69
2022/03/21 03:40:43;;;;;;;23.58;21.08;;;16.60;44.30;;;;;;4966332;28;100252;-69
2022/03/21 03:43:08;;;;;;;23.63;21.13;;;16.60;44.40;;;;;;4968229;28;100885;-69
2022/03/21 03:45:34;;;;;;;22.98;19.95;;;16.60;44.40;;;;;;4966590;28;98667;-70
2022/03/21 03:48:01;;;;;;;22.45;20.05;;;16.50;44.30;;;;;;4966754;28;98674;-69
2022/03/21 03:50:27;;;;;;;23.95;20.92;;;16.50;44.40;;;;;;4966376;28;101817;-69
2022/03/21 03:52:52;;;;;;;24.55;21.67;;;16.50;44.40;;;;;;4966887;28;100758;-70
2022/03/21 03:55:18;;;;;;;23.30;20.80;;;16.50;44.40;;;;;;4966635;28;98646;-68
2022/03/21 03:57:45;;;;;;;23.65;21.10;;;16.50;44.40;;;;;;4967343;28;99602;-68
2022/03/21 04:00:12;;;;;;;24.83;21.20;;;16.50;44.40;;;;;;4964821;28;100445;-69
2022/03/21 04:05:22;;;;;;;23.92;21.38;;;16.50;44.40;;;;;;4967204;28;99133;-69
2022/03/21 04:07:49;;;;;;;24.27;20.83;;;16.50;44.40;;;;;;4967325;28;98266;-69
2022/03/21 04:10:16;;;;;;;24.10;21.55;;;16.40;44.30;;;;;;4966306;28;99164;-69
2022/03/21 04:12:43;;;;;;;22.92;20.45;;;16.50;44.30;;;;;;4966405;28;100163;-69
2022/03/21 04:15:09;;;;;;;24.83;22.23;;;16.50;44.40;;;;;;4966641;28;99613;-69
2022/03/21 04:17:35;;;;;;;25.02;21.77;;;16.50;44.40;;;;;;4966545;28;100357;-68
2022/03/21 04:20:03;;;;;;;24.73;22.02;;;16.50;45.40;;;;;;4966461;28;99331;-69
2022/03/21 04:22:29;;;;;;;24.25;21.23;;;16.40;44.30;;;;;;4965937;28;100099;-69
2022/03/21 04:24:54;;;;;;;24.02;21.42;;;16.40;44.30;;;;;;4966441;28;98689;-69
2022/03/21 04:27:20;;;;;;;23.42;20.70;;;16.40;44.30;;;;;;4967750;28;98610;-68
2022/03/21 04:29:46;;;;;;;23.52;20.88;;;16.40;44.30;;;;;;4967642;28;99715;-69
2022/03/21 04:32:12;;;;;;;22.80;20.40;;;16.40;44.30;;;;;;4966842;28;99352;-69
2022/03/21 04:34:38;;;;;;;23.45;20.95;;;16.40;44.30;;;;;;4968818;28;98957;-68
2022/03/21 04:37:05;;;;;;;26.02;22.30;;;16.40;44.30;;;;;;4970681;28;98614;-69
2022/03/21 04:39:30;;;;;;;23.88;21.27;;;16.40;44.30;;;;;;4971138;28;99840;-69
2022/03/21 04:41:57;;;;;;;23.63;21.05;;;16.40;44.20;;;;;;4980723;28;100081;-69
2022/03/21 04:44:22;;;;;;;23.13;20.73;;;16.40;44.30;;;;;;4967923;28;98897;-69
2022/03/21 04:46:48;;;;;;;24.30;21.70;;;16.40;44.30;;;;;;4966742;28;98642;-68
2022/03/21 04:49:13;;;;;;;24.23;20.90;;;16.40;44.30;;;;;;4965937;28;99328;-68
2022/03/21 04:51:39;;;;;;;23.27;20.80;;;16.40;44.30;;;;;;4967342;28;101229;-68
2022/03/21 04:54:04;;;;;;;24.08;20.88;;;16.30;44.30;;;;;;4970092;28;99172;-69
2022/03/21 04:56:30;;;;;;;24.10;21.50;;;16.30;44.20;;;;;;4969310;28;98007;-69
2022/03/21 04:58:55;;;;;;;24.42;21.38;;;16.30;44.20;;;;;;4968988;28;99186;-68
2022/03/21 05:01:21;;;;;;;23.77;21.25;;;16.30;44.20;;;;;;4968647;28;100611;-69
2022/03/21 05:03:47;;;;;;;22.83;20.33;;;16.30;44.20;;;;;;4969281;28;100080;-68
2022/03/21 05:06:16;;;;;;;23.95;21.35;;;16.30;44.20;;;;;;4970729;28;98907;-68
2022/03/21 05:08:43;;;;;;;24.60;21.33;;;16.30;44.30;;;;;;4969100;28;100286;-69
2022/03/21 05:11:08;;;;;;;24.05;21.58;;;16.30;44.30;;;;;;4969487;28;99147;-69
2022/03/21 05:13:34;;;;;;;24.13;21.63;;;16.30;44.30;;;;;;4970587;28;98906;-70
2022/03/21 06:20:50;;;;;;;;;;;17.10;42.90;;;;;;4932528;28;98981;-70
2022/03/21 06:23:16;;;;;;;19.35;17.10;;;17.20;42.90;;;;;;4937338;28;99881;-71
2022/03/21 06:25:41;;;;;;;19.95;17.75;;;17.40;42.40;;;;;;4936036;28;100717;-69
2022/03/21 06:28:08;;;;;;;18.85;16.85;;;17.50;42.10;;;;;;4918975;28;98568;-69
2022/03/21 06:30:34;;;;;;;19.92;16.10;;;17.60;41.90;;;;;;4937074;28;99136;-69
2022/03/21 06:33:00;;;;;;;19.63;17.10;;;17.70;41.70;;;;;;4937243;28;99245;-70
2022/03/21 06:35:25;;;;;;;20.33;16.83;;;17.80;41.50;;;;;;4933624;28;99129;-70
2022/03/21 06:37:52;;;;;;;20.42;15.63;;;17.80;41.40;;;;;;4933876;28;98692;-70
2022/03/21 06:40:18;;;;;;;19.33;16.13;;;17.80;41.40;;;;;;4935522;28;98411;-70
2022/03/21 06:42:43;;;;;;;21.40;15.07;;;17.90;41.50;;;;;;4934170;28;100246;-70
2022/03/21 06:45:09;;;;;;;18.45;14.65;;;18.00;41.40;;;;;;4933877;28;99096;-71
2022/03/21 06:47:35;;;;;;;18.48;14.50;;;18.10;41.40;;;;;;4931848;28;99415;-69
2022/03/21 06:50:01;;;;;;;17.65;13.93;;;18.10;41.50;;;;;;4932063;28;98690;-71
2022/03/21 06:52:26;;;;;;;16.63;13.32;;;18.20;41.70;;;;;;4931031;28;100391;-70
2022/03/21 06:54:52;;;;;;;17.27;13.23;;;18.20;41.70;;;;;;4930131;28;99114;-71
2022/03/21 06:57:18;;;;;;;20.67;13.25;;;18.30;41.80;;;;;;4928995;28;98649;-72
2022/03/21 06:59:45;;;;;;;16.48;13.00;;;18.30;41.90;;;;;;4929538;28;98662;-71
2022/03/21 07:02:12;;;;;;;16.65;12.40;;;18.30;41.90;;;;;;4930057;28;100771;-72
2022/03/21 07:04:37;;;;;;;20.20;12.85;;;18.30;42.00;;;;;;4930210;28;100198;-71
2022/03/21 07:07:03;;;;;;;16.60;12.73;;;18.30;42.10;;;;;;4930884;28;99075;-71
2022/03/21 07:09:29;;;;;;;14.63;12.15;;;18.30;42.30;;;;;;4929909;28;99174;-71
2022/03/21 07:11:54;;;;;;;16.40;12.15;;;18.30;42.50;;;;;;4930078;28;99401;-70
2022/03/21 07:14:20;;;;;;;14.27;12.35;;;18.20;42.50;;;;;;4929208;28;100122;-68
2022/03/21 07:16:47;;;;;;;13.95;11.82;;;18.20;42.90;;;;;;4930007;28;98967;-70
2022/03/21 07:19:12;;;;;;;12.90;11.60;;;18.10;42.80;;;;;;4928517;28;99530;-70
2022/03/21 07:21:40;;;;;;;14.23;11.45;;;18.10;42.80;;;;;;4912082;28;106993;-71
2022/03/21 07:24:07;;;;;;;15.25;11.35;;;18.00;42.90;;;;;;4930210;28;99507;-71
2022/03/21 07:26:33;;;;;;;14.35;11.13;;;18.00;43.10;;;;;;4929203;28;98728;-70
2022/03/21 07:28:59;;;;;;;14.68;11.45;;;18.00;43.40;;;;;;4930224;28;97829;-70
2022/03/21 07:31:24;;;;;;;18.08;11.23;;;18.00;44.20;;;;;;4928617;28;100366;-72
2022/03/21 07:33:50;;;;;;;14.82;11.25;;;17.90;45.00;;;;;;4929516;28;99369;-70
2022/03/21 07:36:16;;;;;;;17.60;11.35;;;17.90;45.30;;;;;;4929423;28;99379;-70
2022/03/21 07:38:41;;;;;;;15.73;10.98;;;17.90;45.50;;;;;;4928433;28;99042;-69
2022/03/21 07:41:07;;;;;;;13.90;11.30;;;17.90;45.60;;;;;;4929075;28;100430;-69
2022/03/21 07:43:37;;;;;;;13.88;11.32;;;17.80;45.90;;;;;;4930001;28;99390;-70
2022/03/21 07:48:50;;;;;;;14.80;11.38;;;17.80;46.10;;;;;;4929775;28;99126;-73
2022/03/21 07:51:15;;;;;;;13.23;10.63;;;17.80;46.40;;;;;;4929811;28;100642;-71
2022/03/21 07:53:41;;;;;;;13.70;11.05;;;17.80;46.40;;;;;;4930504;28;99534;-71
2022/03/21 07:56:09;;;;;;;18.95;11.40;;;17.80;46.40;;;;;;4929826;28;98599;-72
2022/03/21 07:58:35;;;;;;;13.63;11.13;;;17.70;46.40;;;;;;4930099;28;98622;-71
2022/03/21 08:01:01;;;;;;;15.32;10.90;;;17.70;46.60;;;;;;4929254;28;99823;-72
2022/03/21 08:03:27;;;;;;;13.90;10.40;;;17.70;46.40;;;;;;4928558;28;99918;-74
2022/03/21 08:05:54;;;;;;;12.80;10.20;;;17.70;46.20;;;;;;4930400;28;98840;-73
2022/03/21 08:08:21;;;;;;;12.73;10.98;;;17.70;46.20;;;;;;4932283;28;98597;-72
2022/03/21 08:10:57;;;;;;;14.52;10.50;;;17.70;46.20;;;;;;4934516;28;100595;-71
2022/03/21 08:13:25;;;;;;;13.00;10.40;;;17.70;46.30;;;;;;4935958;28;99027;-70
2022/03/21 08:15:51;;;;;;;12.88;10.43;;;17.70;46.30;;;;;;4931768;28;98682;-71
2022/03/21 08:18:16;;;;;;;12.55;10.20;;;17.60;46.30;;;;;;4931053;28;98379;-72
2022/03/21 08:20:43;;;;;;;12.55;10.63;;;17.60;46.30;;;;;;4928868;28;102035;-72
2022/03/21 08:23:13;;;;;;;14.38;10.98;;;17.60;46.30;;;;;;4927859;28;101575;-71
2022/03/21 08:25:41;;;;;;;11.80;10.18;;;17.60;46.40;;;;;;4927321;28;99458;-72
2022/03/21 08:28:08;;;;;;;11.70;9.82;;;17.50;46.40;;;;;;4930039;28;98613;-72
2022/03/21 08:30:36;;;;;;;14.77;10.10;;;17.50;46.40;;;;;;4929799;28;100359;-72
2022/03/21 08:33:05;;;;;;;11.80;10.23;;;17.50;46.40;;;;;;4929179;28;99592;-72
2022/03/21 08:35:31;;;;;;;13.38;9.90;;;17.50;46.40;;;;;;4930371;28;98970;-72
2022/03/21 08:37:57;;;;;;;13.23;10.43;;;17.40;46.30;;;;;;4929818;28;99169;-71
2022/03/21 08:40:23;;;;;;;15.75;10.85;;;17.40;46.30;;;;;;4929580;28;100282;-71
2022/03/21 08:42:48;;;;;;;13.80;10.50;;;17.40;46.40;;;;;;4929342;28;99325;-72
2022/03/21 08:45:15;;;;;;;14.00;10.27;;;17.40;46.50;;;;;;4928876;28;98602;-72
2022/03/21 08:47:41;;;;;;;12.38;10.68;;;17.30;46.40;;;;;;4929072;28;99135;-71
2022/03/21 08:50:08;;;;;;;11.90;9.75;;;17.30;46.40;;;;;;4928291;28;101342;-71
2022/03/21 08:52:34;;;;;;;14.50;10.07;;;17.30;46.50;;;;;;4928781;28;99632;-72
2022/03/21 08:55:00;;;;;;;17.15;10.27;;;17.30;46.60;;;;;;4928760;28;98947;-71
2022/03/21 08:57:26;;;;;;;13.93;9.88;;;17.20;46.60;;;;;;4929235;28;98689;-73
2022/03/21 08:59:52;;;;;;;15.07;9.80;;;17.20;46.70;;;;;;4929899;28;99203;-72
2022/03/21 09:02:18;;;;;;;11.15;9.63;;;17.20;46.80;;;;;;4928953;28;100417;-71
2022/03/21 09:04:45;;;;;;;12.48;9.70;;;17.20;46.80;;;;;;4929419;28;98637;-72
2022/03/21 09:07:12;;;;;;;12.23;9.45;;;17.20;46.90;;;;;;4927705;28;97878;-71
2022/03/21 09:09:40;;;;;;;14.40;10.40;;;17.20;47.00;;;;;;4928871;28;101033;-72
2022/03/21 09:12:07;;;;;;;13.43;9.48;;;17.20;47.10;;;;;;4928558;28;100029;-72
2022/03/21 09:14:34;;;;;;;12.77;10.13;;;17.30;47.20;;;;;;4928308;28;99536;-71
2022/03/21 09:17:00;;;;;;;12.20;9.88;;;17.30;48.40;;;;;;4928212;28;98648;-71
2022/03/21 09:19:27;;;;;;;16.88;9.85;;;17.30;47.40;;;;;;4927500;28;100821;-73
2022/03/21 09:21:53;;;;;;;14.20;9.88;;;17.30;47.50;;;;;;4928708;28;99727;-71
2022/03/21 09:24:19;;;;;;;11.88;9.48;;;17.30;47.60;;;;;;4929688;28;98666;-71
2022/03/21 09:26:45;;;;;;;12.13;9.38;;;17.30;48.60;;;;;;4929623;28;98866;-72
2022/03/21 09:29:11;;;;;;;11.35;9.60;;;17.30;47.70;;;;;;4928764;28;99374;-72
2022/03/21 09:31:38;;;;;;;12.00;10.07;;;17.30;47.80;;;;;;4929182;28;99281;-72
2022/03/21 09:34:04;;;;;;;13.00;10.50;;;17.30;47.80;;;;;;4929222;28;99190;-72
2022/03/21 09:36:30;;;;;;;13.95;10.50;;;17.30;47.90;;;;;;4927689;28;98769;-72
2022/03/21 09:38:55;;;;;;;13.82;10.32;;;17.30;47.90;;;;;;4929060;28;99976;-72
2022/03/21 09:41:29;;;;;;;14.30;9.50;;;17.30;48.00;;;;;;4930785;28;102748;-72
2022/03/21 09:44:01;;;;;;;12.40;9.98;;;17.40;47.90;;;;;;4931373;28;98654;-71
2022/03/21 09:46:27;;;;;;;14.05;9.63;;;17.40;47.90;;;;;;4931629;28;99043;-71
2022/03/21 09:48:57;;;;;;;15.65;9.70;;;17.40;48.00;;;;;;4930577;28;100608;-71
2022/03/21 09:51:28;;;;;;;12.45;9.75;;;17.40;47.90;;;;;;4932094;28;98896;-71
2022/03/21 09:54:09;;;;;;;12.13;9.32;;;17.40;48.00;;;;;;4935336;28;98685;-72
2022/03/21 09:56:36;;;;;;;13.90;10.27;;;17.40;47.80;;;;;;4937609;28;98175;-72
2022/03/21 09:59:02;;;;;;;11.63;9.52;;;17.40;47.90;;;;;;4932107;28;100215;-71
2022/03/21 10:01:29;;;;;;;13.02;9.55;;;17.50;47.90;;;;;;4931256;28;100406;-72
2022/03/21 10:03:55;;;;;;;12.82;9.63;;;17.40;47.80;;;;;;4930469;28;100647;-73
2022/03/21 10:06:34;;;;;;;11.85;9.60;;;17.40;47.80;;;;;;4932764;28;98672;-73
2022/03/21 10:09:19;;;;;;;14.80;9.50;;;17.50;47.80;;;;;;4931342;28;101096;-72
2022/03/21 10:11:56;;;;;;;10.38;8.70;;;17.50;47.80;;;;;;4930892;28;100603;-72
2022/03/21 10:14:34;;;;;;;13.65;10.07;;;17.50;47.70;;;;;;4931436;28;98687;-71
2022/03/21 10:17:10;;;;;;;10.73;8.90;;;17.50;47.60;;;;;;4930949;28;98623;-72
2022/03/21 10:19:52;;;;;;;9.88;8.88;;;17.50;47.60;;;;;;4931494;28;100178;-70
2022/03/21 10:22:20;;;;;;;10.75;8.80;;;17.50;47.60;;;;;;4931840;28;101114;-69
2022/03/21 10:24:48;;;;;;;11.20;9.30;;;17.50;47.60;;;;;;4933123;28;98892;-69
2022/03/21 10:27:30;;;;;;;14.68;9.25;;;17.50;47.60;;;;;;4932596;28;99171;-69
2022/03/21 10:30:01;;;;;;;11.50;9.55;;;17.50;47.60;;;;;;4915659;28;101364;-72
2022/03/21 10:32:42;;;;;;;10.80;8.48;;;17.50;47.50;;;;;;4916631;28;99541;-70
2022/03/21 10:35:16;;;;;;;10.88;8.98;;;17.50;47.50;;;;;;4940825;28;98738;-70
2022/03/21 10:37:42;;;;;;;12.55;8.88;;;17.50;47.50;;;;;;4937378;28;98827;-69
2022/03/21 10:40:26;;;;;;;11.57;8.73;;;17.50;47.40;;;;;;4935596;28;99817;-69
2022/03/21 10:42:57;;;;;;;12.05;8.45;;;17.60;47.50;;;;;;4933255;28;99890;-70
2022/03/21 10:45:25;;;;;;;10.32;8.65;;;17.50;47.30;;;;;;4934250;28;98843;-71
2022/03/21 10:47:52;;;;;;;12.30;8.95;;;17.50;47.30;;;;;;4935058;28;98053;-71
2022/03/21 10:50:32;;;;;;;12.23;8.98;;;17.60;47.30;;;;;;4933629;28;99638;-72
2022/03/21 10:53:15;;;;;;;11.55;8.93;;;17.60;47.30;;;;;;4930175;28;100254;-73
2022/03/21 10:55:45;;;;;;;;;;;17.60;47.20;;;;;;4931806;28;99659;-72
2022/03/21 10:58:12;;;;;;;10.80;8.23;;;17.50;47.10;;;;;;4932577;28;98617;-72
2022/03/21 11:00:38;;;;;;;11.10;8.52;;;17.50;47.10;;;;;;4914027;28;102812;-72
2022/03/21 11:03:16;;;;;;;10.70;8.30;;;17.60;47.20;;;;;;4931295;28;99602;-72
2022/03/21 11:05:47;;;;;;;10.77;8.10;;;17.60;47.10;;;;;;4932758;28;99533;-71
2022/03/21 11:08:15;;;;;;;11.77;8.30;;;17.60;47.10;;;;;;4931626;28;98609;-72
2022/03/21 11:10:42;;;;;;;12.00;8.30;;;17.60;47.10;;;;;;4931363;28;99525;-72
2022/03/21 11:13:09;;;;;;;10.43;8.65;;;17.60;47.00;;;;;;4930941;28;99414;-72
2022/03/21 11:15:36;;;;;;;10.05;8.40;;;17.60;47.00;;;;;;4931246;28;98930;-71
2022/03/21 11:18:06;;;;;;;9.90;8.23;;;17.60;46.90;;;;;;4931275;28;98954;-71
2022/03/21 11:20:33;;;;;;;10.45;7.90;;;17.60;46.80;;;;;;4930396;28;100828;-71
2022/03/21 11:23:01;;;;;;;9.45;8.27;;;17.60;46.70;;;;;;4912188;28;102316;-72
2022/03/21 11:25:31;;;;;;;9.82;8.00;;;17.60;46.60;;;;;;4928915;28;98661;-71
2022/03/21 11:28:26;;;;;;;9.20;7.68;;;17.60;46.60;;;;;;4930178;28;98669;-72
2022/03/21 11:31:12;;;;;;;10.00;8.00;;;17.70;46.60;;;;;;4929737;28;99234;-72
2022/03/21 11:33:59;;;;;;;10.98;8.07;;;17.60;46.50;;;;;;4930778;28;99066;-71
2022/03/21 11:36:31;;;;;;;9.55;8.00;;;17.60;46.50;;;;;;4933006;28;99000;-72
2022/03/21 11:39:02;;;;;;;10.75;8.90;;;17.60;46.50;;;;;;4936816;28;97838;-71
2022/03/21 11:41:31;;;;;;;9.65;8.27;;;17.60;46.50;;;;;;4932500;28;100216;-72
2022/03/21 11:44:06;;;;;;;10.07;8.02;;;17.60;46.40;;;;;;4930573;28;99250;-71
2022/03/21 11:46:33;;;;;;;10.10;7.57;;;17.60;46.50;;;;;;4930144;28;99730;-71
2022/03/21 11:49:28;;;;;;;8.73;7.38;;;17.60;46.50;;;;;;4931032;28;99214;-71
2022/03/21 11:51:57;;;;;;;9.90;7.65;;;17.60;46.50;;;;;;4929880;28;100340;-71
2022/03/21 11:54:36;;;;;;;10.10;7.40;;;17.60;46.60;;;;;;4929444;28;99921;-70
2022/03/21 11:57:05;;;;;;;8.63;7.05;;;17.60;46.50;;;;;;4930075;28;98776;-71
2022/03/21 11:59:33;;;;;;;8.60;7.00;;;17.60;46.50;;;;;;4929619;28;98632;-69
2022/03/21 12:02:25;;;;;;;10.45;7.40;;;17.60;46.50;;;;;;4929196;28;99764;-69
2022/03/21 12:05:07;;;;;;;8.48;7.22;;;17.60;46.50;;;;;;4929038;28;97960;-72
2022/03/21 12:07:33;;;;;;;8.80;7.10;;;17.60;46.50;;;;;;4930166;28;99140;-71
2022/03/21 12:09:59;;;;;;;9.50;7.30;;;17.60;46.50;;;;;;4929033;28;98733;-71
2022/03/21 12:12:39;;;;;;;8.88;7.45;;;17.60;46.50;;;;;;4929110;28;99625;-71
2022/03/21 12:15:17;;;;;;;9.40;7.35;;;17.60;47.50;;;;;;4929153;28;101119;-71
2022/03/21 12:17:48;;;;;;;8.55;7.20;;;17.60;46.50;;;;;;4929371;28;99113;-71
2022/03/21 12:20:18;;;;;;;8.95;7.03;;;17.60;46.50;;;;;;4928351;28;98660;-72
2022/03/21 12:22:47;;;;;;;9.43;7.07;;;17.60;46.60;;;;;;4911803;28;100781;-71
2022/03/21 12:25:29;;;;;;;9.32;7.18;;;17.60;46.50;;;;;;4929764;28;99244;-71
2022/03/21 12:27:56;;;;;;;8.15;6.78;;;17.60;46.50;;;;;;4929109;28;98627;-72
2022/03/21 12:32:48;;;;;;;8.13;7.00;;;17.60;46.50;;;;;;4928710;28;99104;-70
2022/03/21 12:35:32;;;;;;;9.73;6.90;;;17.60;46.60;;;;;;4929451;28;100037;-72
2022/03/21 12:38:16;;;;;;;8.55;6.90;;;17.60;46.50;;;;;;4930247;28;99836;-71
2022/03/21 12:40:50;;;;;;;8.23;7.30;;;17.60;46.40;;;;;;4929056;28;98775;-71
2022/03/21 12:43:23;;;;;;;8.25;6.90;;;17.60;46.50;;;;;;4929269;28;99285;-71
2022/03/21 12:45:53;;;;;;;8.27;6.80;;;17.60;46.50;;;;;;4930477;28;100292;-73
2022/03/21 12:48:19;;;;;;;8.93;6.88;;;17.60;46.50;;;;;;4930529;28;99033;-71
2022/03/21 12:50:49;;;;;;;8.80;7.00;;;17.70;46.40;;;;;;4930150;28;98656;-71
2022/03/21 12:53:18;;;;;;;9.07;7.00;;;17.70;46.50;;;;;;4930173;28;100048;-71
2022/03/21 12:55:45;;;;;;;8.10;7.03;;;17.60;46.40;;;;;;4930590;28;100289;-71
2022/03/21 12:58:13;;;;;;;8.15;6.97;;;17.60;46.30;;;;;;4929524;28;98936;-73
2022/03/21 13:00:40;;;;;;;7.97;6.78;;;17.70;46.40;;;;;;4930060;28;99152;-71
2022/03/21 13:03:15;;;;;;;8.98;6.80;;;17.70;46.40;;;;;;4929491;28;101045;-72
2022/03/21 13:11:21;;;;;;;7.80;6.40;;;17.70;46.30;;;;;;4929802;28;98590;-72
2022/03/21 13:13:55;;;;;;;8.40;6.68;;;17.70;46.30;;;;;;4931080;28;100428;-71
2022/03/21 13:16:23;;;;;;;8.70;7.03;;;17.70;46.20;;;;;;4933995;28;98987;-73
2022/03/21 13:18:52;;;;;;;8.45;7.03;;;17.70;46.10;;;;;;4933800;28;99186;-72
2022/03/21 13:21:20;;;;;;;10.43;7.25;;;17.70;46.10;;;;;;4936465;28;97887;-72
2022/03/21 13:23:48;;;;;;;9.15;7.20;;;17.80;46.10;;;;;;4935642;28;98876;-72
2022/03/21 13:26:23;;;;;;;7.30;6.55;;;17.80;46.00;;;;;;4933363;28;100022;-72
2022/03/21 13:28:50;;;;;;;9.60;7.22;;;17.80;46.00;;;;;;4933849;28;99522;-71
2022/03/21 13:31:26;;;;;;;9.10;7.25;;;17.80;46.00;;;;;;4933379;28;98578;-71
2022/03/21 13:34:03;;;;;;;7.28;6.28;;;17.80;45.90;;;;;;4933152;28;100289;-72
2022/03/21 13:36:29;;;;;;;9.27;6.95;;;17.80;45.90;;;;;;4932531;28;99455;-72
2022/03/21 13:39:16;;;;;;;9.23;7.35;;;17.80;46.00;;;;;;4932848;28;98595;-72
2022/03/21 13:41:59;;;;;;;7.97;6.70;;;17.80;46.00;;;;;;4932854;28;98689;-68
2022/03/21 13:44:29;;;;;;;8.70;7.13;;;17.80;46.00;;;;;;4932213;28;99040;-70
2022/03/21 13:47:01;;;;;;;9.90;7.18;;;17.80;46.00;;;;;;4931871;28;98745;-70
2022/03/21 13:50:01;;;;;;;9.23;6.93;;;17.80;46.00;;;;;;4932682;28;99002;-72
2022/03/21 13:52:44;;;;;;;8.00;6.70;;;17.90;46.00;;;;;;4932320;28;99014;-71
2022/03/21 13:55:18;;;;;;;9.05;6.88;;;17.90;46.00;;;;;;4930674;28;99997;-71
2022/03/21 13:57:49;;;;;;;8.88;6.90;;;17.90;46.10;;;;;;4931248;28;100599;-69
2022/03/21 14:00:38;;;;;;;8.40;6.55;;;17.90;46.10;;;;;;4930734;28;99340;-70